sensor_id;sensor_type;location;lat;lon;timestamp;temperature;humidity
16655;DHT22;8441;51.344;7.022;2022-09-25T00:02:00;12.60;99.90
16655;DHT22;8441;51.344;7.022;2022-09-25T00:04:27;12.60;99.90
16655;DHT22;8441;51.344;7.022;2022-09-25T00:06:54;12.60;99.90
16655;DHT22;8441;51.344;7.022;2022-09-25T00:09:21;12.60;99.90
16655;DHT22;8441;51.344;7.022;2022-09-25T00:11:49;12.60;99.90
16655;DHT22;8441;51.344;7.022;2022-09-25T00:14:16;12.60;99.90
16655;DHT22;8441;51.344;7.022;2022-09-25T00:16:45;12.60;99.90
16655;DHT22;8441;51.344;7.022;2022-09-25T00:19:19;12.60;99.90
16655;DHT22;8441;51.344;7.022;2022-09-25T00:22:04;12.60;99.90
16655;DHT22;8441;51.344;7.022;2022-09-25T00:24:31;12.60;99.90
16655;DHT22;8441;51.344;7.022;2022-09-25T00:26:59;12.60;99.90
16655;DHT22;8441;51.344;7.022;2022-09-25T00:29:26;12.60;99.90
16655;DHT22;8441;51.344;7.022;2022-09-25T00:31:57;12.60;99.90
16655;DHT22;8441;51.344;7.022;2022-09-25T00:34:24;12.50;99.90
16655;DHT22;8441;51.344;7.022;2022-09-25T00:36:51;12.50;99.90
16655;DHT22;8441;51.344;7.022;2022-09-25T00:39:18;12.60;99.90
16655;DHT22;8441;51.344;7.022;2022-09-25T00:41:46;12.50;99.90
16655;DHT22;8441;51.344;7.022;2022-09-25T00:47:32;12.40;99.90
16655;DHT22;8441;51.344;7.022;2022-09-25T00:50:04;12.40;99.90
16655;DHT22;8441;51.344;7.022;2022-09-25T00:52:37;12.40;99.90
16655;DHT22;8441;51.344;7.022;2022-09-25T00:55:06;12.30;99.90
16655;DHT22;8441;51.344;7.022;2022-09-25T00:57:35;12.40;99.90
16655;DHT22;8441;51.344;7.022;2022-09-25T01:00:07;12.40;99.90
16655;DHT22;8441;51.344;7.022;2022-09-25T01:02:39;12.30;99.90
16655;DHT22;8441;51.344;7.022;2022-09-25T01:05:10;12.30;99.90
16655;DHT22;8441;51.344;7.022;2022-09-25T01:07:39;12.30;99.90
16655;DHT22;8441;51.344;7.022;2022-09-25T01:10:08;12.30;99.90
16655;DHT22;8441;51.344;7.022;2022-09-25T01:12:38;12.30;99.90
16655;DHT22;8441;51.344;7.022;2022-09-25T01:15:06;12.30;99.90
16655;DHT22;8441;51.344;7.022;2022-09-25T01:17:42;12.30;99.90
16655;DHT22;8441;51.344;7.022;2022-09-25T01:20:20;12.30;99.90
16655;DHT22;8441;51.344;7.022;2022-09-25T01:22:56;12.30;99.90
16655;DHT22;8441;51.344;7.022;2022-09-25T01:25:37;12.20;99.90
16655;DHT22;8441;51.344;7.022;2022-09-25T01:28:19;12.30;99.90
16655;DHT22;8441;51.344;7.022;2022-09-25T01:31:00;12.30;99.90
16655;DHT22;8441;51.344;7.022;2022-09-25T01:33:32;12.20;99.90
16655;DHT22;8441;51.344;7.022;2022-09-25T01:36:03;12.10;99.90
16655;DHT22;8441;51.344;7.022;2022-09-25T01:38:40;12.10;99.90
16655;DHT22;8441;51.344;7.022;2022-09-25T01:41:11;12.10;99.90
16655;DHT22;8441;51.344;7.022;2022-09-25T01:43:43;12.10;99.90
16655;DHT22;8441;51.344;7.022;2022-09-25T01:46:15;12.00;99.90
16655;DHT22;8441;51.344;7.022;2022-09-25T01:48:45;12.00;99.90
16655;DHT22;8441;51.344;7.022;2022-09-25T01:51:16;12.00;99.90
16655;DHT22;8441;51.344;7.022;2022-09-25T01:53:47;12.00;99.90
16655;DHT22;8441;51.344;7.022;2022-09-25T01:56:19;12.00;99.90
16655;DHT22;8441;51.344;7.022;2022-09-25T08:26:24;11.90;99.90
16655;DHT22;8441;51.344;7.022;2022-09-25T08:28:53;12.10;99.90
16655;DHT22;8441;51.344;7.022;2022-09-25T08:31:22;12.20;99.90
16655;DHT22;8441;51.344;7.022;2022-09-25T08:33:49;12.10;99.90
16655;DHT22;8441;51.344;7.022;2022-09-25T08:36:17;12.20;99.90
16655;DHT22;8441;51.344;7.022;2022-09-25T08:38:44;12.20;99.90
16655;DHT22;8441;51.344;7.022;2022-09-25T08:41:15;12.30;99.90
16655;DHT22;8441;51.344;7.022;2022-09-25T08:43:53;12.40;99.90
16655;DHT22;8441;51.344;7.022;2022-09-25T08:46:24;12.60;99.90
16655;DHT22;8441;51.344;7.022;2022-09-25T08:49:12;12.80;99.90
16655;DHT22;8441;51.344;7.022;2022-09-25T08:51:44;12.90;99.90
16655;DHT22;8441;51.344;7.022;2022-09-25T08:54:17;13.00;99.90
16655;DHT22;8441;51.344;7.022;2022-09-25T08:56:48;13.10;99.90
16655;DHT22;8441;51.344;7.022;2022-09-25T08:59:22;13.20;99.90
16655;DHT22;8441;51.344;7.022;2022-09-25T09:01:52;13.10;99.90
16655;DHT22;8441;51.344;7.022;2022-09-25T09:04:26;13.10;99.90
16655;DHT22;8441;51.344;7.022;2022-09-25T09:07:02;13.00;99.90
16655;DHT22;8441;51.344;7.022;2022-09-25T09:09:34;12.80;99.90
16655;DHT22;8441;51.344;7.022;2022-09-25T09:12:08;12.80;99.90
16655;DHT22;8441;51.344;7.022;2022-09-25T09:14:43;12.80;99.90
16655;DHT22;8441;51.344;7.022;2022-09-25T09:17:15;12.80;99.90
16655;DHT22;8441;51.344;7.022;2022-09-25T09:19:46;13.00;99.90
16655;DHT22;8441;51.344;7.022;2022-09-25T09:22:19;13.10;99.90
16655;DHT22;8441;51.344;7.022;2022-09-25T09:24:57;13.20;99.90
16655;DHT22;8441;51.344;7.022;2022-09-25T09:27:49;13.30;99.90
16655;DHT22;8441;51.344;7.022;2022-09-25T09:30:21;13.40;99.90
16655;DHT22;8441;51.344;7.022;2022-09-25T09:33:03;13.50;99.90
16655;DHT22;8441;51.344;7.022;2022-09-25T09:35:40;13.60;99.90
16655;DHT22;8441;51.344;7.022;2022-09-25T09:38:20;14.00;99.90
16655;DHT22;8441;51.344;7.022;2022-09-25T09:41:01;14.20;99.90
16655;DHT22;8441;51.344;7.022;2022-09-25T09:43:39;14.30;99.90
16655;DHT22;8441;51.344;7.022;2022-09-25T09:46:14;14.30;99.90
16655;DHT22;8441;51.344;7.022;2022-09-25T09:48:46;14.10;99.90
16655;DHT22;8441;51.344;7.022;2022-09-25T09:51:20;14.00;99.90
16655;DHT22;8441;51.344;7.022;2022-09-25T09:53:51;14.10;99.90
16655;DHT22;8441;51.344;7.022;2022-09-25T09:56:22;14.30;99.90
16655;DHT22;8441;51.344;7.022;2022-09-25T09:58:54;14.40;99.90
16655;DHT22;8441;51.344;7.022;2022-09-25T10:01:28;14.50;99.90
16655;DHT22;8441;51.344;7.022;2022-09-25T10:04:02;14.60;99.90
16655;DHT22;8441;51.344;7.022;2022-09-25T10:06:32;14.80;99.90
16655;DHT22;8441;51.344;7.022;2022-09-25T10:09:01;14.80;99.90
16655;DHT22;8441;51.344;7.022;2022-09-25T10:11:30;14.70;99.90
16655;DHT22;8441;51.344;7.022;2022-09-25T10:14:02;14.70;99.90
16655;DHT22;8441;51.344;7.022;2022-09-25T10:16:31;14.60;99.90
16655;DHT22;8441;51.344;7.022;2022-09-25T10:19:02;14.30;99.90
16655;DHT22;8441;51.344;7.022;2022-09-25T10:21:36;14.10;99.90
16655;DHT22;8441;51.344;7.022;2022-09-25T10:24:04;14.00;99.90
16655;DHT22;8441;51.344;7.022;2022-09-25T10:26:33;14.10;99.90
16655;DHT22;8441;51.344;7.022;2022-09-25T10:29:02;14.20;99.90
16655;DHT22;8441;51.344;7.022;2022-09-25T10:31:33;14.50;99.90
16655;DHT22;8441;51.344;7.022;2022-09-25T10:34:04;14.70;99.90
16655;DHT22;8441;51.344;7.022;2022-09-25T10:36:35;14.90;99.90
16655;DHT22;8441;51.344;7.022;2022-09-25T10:39:04;15.00;99.90
16655;DHT22;8441;51.344;7.022;2022-09-25T10:41:41;14.90;99.90
16655;DHT22;8441;51.344;7.022;2022-09-25T10:44:20;15.00;99.90
16655;DHT22;8441;51.344;7.022;2022-09-25T10:46:49;15.20;99.90
16655;DHT22;8441;51.344;7.022;2022-09-25T10:49:45;15.10;99.90
16655;DHT22;8441;51.344;7.022;2022-09-25T10:52:44;14.90;99.90
16655;DHT22;8441;51.344;7.022;2022-09-25T10:55:23;14.60;99.90
16655;DHT22;8441;51.344;7.022;2022-09-25T10:58:03;14.60;99.90
16655;DHT22;8441;51.344;7.022;2022-09-25T11:00:31;14.70;99.90
16655;DHT22;8441;51.344;7.022;2022-09-25T11:03:03;14.80;99.90
16655;DHT22;8441;51.344;7.022;2022-09-25T11:05:34;15.00;99.90
16655;DHT22;8441;51.344;7.022;2022-09-25T11:08:03;14.80;99.90
16655;DHT22;8441;51.344;7.022;2022-09-25T11:10:34;14.70;99.90
16655;DHT22;8441;51.344;7.022;2022-09-25T11:13:07;14.70;99.90
16655;DHT22;8441;51.344;7.022;2022-09-25T11:15:35;14.60;99.90
16655;DHT22;8441;51.344;7.022;2022-09-25T11:18:07;14.90;99.90
16655;DHT22;8441;51.344;7.022;2022-09-25T11:21:01;15.00;99.90
16655;DHT22;8441;51.344;7.022;2022-09-25T11:23:33;15.30;99.90
16655;DHT22;8441;51.344;7.022;2022-09-25T11:26:05;15.40;99.90
16655;DHT22;8441;51.344;7.022;2022-09-25T11:28:40;15.50;99.90
16655;DHT22;8441;51.344;7.022;2022-09-25T11:31:12;15.40;99.90
16655;DHT22;8441;51.344;7.022;2022-09-25T11:33:51;15.40;99.90
16655;DHT22;8441;51.344;7.022;2022-09-25T11:36:26;15.40;99.90
16655;DHT22;8441;51.344;7.022;2022-09-25T11:38:58;15.40;99.90
16655;DHT22;8441;51.344;7.022;2022-09-25T11:41:49;15.20;99.90
16655;DHT22;8441;51.344;7.022;2022-09-25T11:44:24;15.00;99.90
16655;DHT22;8441;51.344;7.022;2022-09-25T11:46:59;15.00;99.90
16655;DHT22;8441;51.344;7.022;2022-09-25T11:49:33;15.00;99.90
16655;DHT22;8441;51.344;7.022;2022-09-25T11:52:19;15.00;99.90
16655;DHT22;8441;51.344;7.022;2022-09-25T11:57:58;14.90;99.90
16655;DHT22;8441;51.344;7.022;2022-09-25T12:00:34;14.70;99.90
16655;DHT22;8441;51.344;7.022;2022-09-25T12:03:19;14.60;99.90
16655;DHT22;8441;51.344;7.022;2022-09-25T12:08:48;15.00;99.90
16655;DHT22;8441;51.344;7.022;2022-09-25T12:11:25;15.50;99.90
16655;DHT22;8441;51.344;7.022;2022-09-25T12:14:01;15.70;99.90
16655;DHT22;8441;51.344;7.022;2022-09-25T12:16:34;16.00;99.90
16655;DHT22;8441;51.344;7.022;2022-09-25T12:19:25;15.90;99.90
16655;DHT22;8441;51.344;7.022;2022-09-25T12:22:00;15.80;99.90
16655;DHT22;8441;51.344;7.022;2022-09-25T12:24:45;15.80;99.90
16655;DHT22;8441;51.344;7.022;2022-09-25T12:27:19;15.70;99.90
16655;DHT22;8441;51.344;7.022;2022-09-25T12:30:03;15.50;99.90
16655;DHT22;8441;51.344;7.022;2022-09-25T12:32:55;15.30;99.90
16655;DHT22;8441;51.344;7.022;2022-09-25T12:35:35;15.20;99.90
16655;DHT22;8441;51.344;7.022;2022-09-25T12:38:12;15.30;99.90
16655;DHT22;8441;51.344;7.022;2022-09-25T12:40:46;15.30;99.90
16655;DHT22;8441;51.344;7.022;2022-09-25T12:43:19;15.40;99.90
16655;DHT22;8441;51.344;7.022;2022-09-25T12:45:51;15.50;99.90
16655;DHT22;8441;51.344;7.022;2022-09-25T12:48:25;15.60;99.90
16655;DHT22;8441;51.344;7.022;2022-09-25T12:50:58;15.70;99.90
16655;DHT22;8441;51.344;7.022;2022-09-25T12:53:33;15.90;99.90
16655;DHT22;8441;51.344;7.022;2022-09-25T12:56:13;15.90;99.90
16655;DHT22;8441;51.344;7.022;2022-09-25T12:58:54;15.80;99.90
16655;DHT22;8441;51.344;7.022;2022-09-25T13:01:26;15.70;99.90
16655;DHT22;8441;51.344;7.022;2022-09-25T13:04:17;15.80;99.90
16655;DHT22;8441;51.344;7.022;2022-09-25T13:06:50;15.80;99.90
16655;DHT22;8441;51.344;7.022;2022-09-25T13:09:29;15.80;99.90
16655;DHT22;8441;51.344;7.022;2022-09-25T13:12:02;15.80;99.90
16655;DHT22;8441;51.344;7.022;2022-09-25T13:14:35;15.80;99.90
16655;DHT22;8441;51.344;7.022;2022-09-25T13:17:09;15.80;99.90
16655;DHT22;8441;51.344;7.022;2022-09-25T13:19:37;15.80;99.90
16655;DHT22;8441;51.344;7.022;2022-09-25T13:22:07;15.80;99.90
16655;DHT22;8441;51.344;7.022;2022-09-25T13:24:43;15.80;99.90
16655;DHT22;8441;51.344;7.022;2022-09-25T13:27:16;15.90;99.90
16655;DHT22;8441;51.344;7.022;2022-09-25T13:29:51;15.90;99.90
16655;DHT22;8441;51.344;7.022;2022-09-25T13:32:20;16.00;99.90
16655;DHT22;8441;51.344;7.022;2022-09-25T13:34:53;16.10;99.90
16655;DHT22;8441;51.344;7.022;2022-09-25T13:37:26;16.10;99.90
16655;DHT22;8441;51.344;7.022;2022-09-25T13:39:55;16.20;99.90
16655;DHT22;8441;51.344;7.022;2022-09-25T13:42:43;16.20;99.90
16655;DHT22;8441;51.344;7.022;2022-09-25T13:45:30;16.20;99.90
16655;DHT22;8441;51.344;7.022;2022-09-25T13:48:07;16.30;99.90
16655;DHT22;8441;51.344;7.022;2022-09-25T13:50:42;16.50;99.90
16655;DHT22;8441;51.344;7.022;2022-09-25T13:53:15;16.60;99.90
16655;DHT22;8441;51.344;7.022;2022-09-25T13:56:22;16.70;99.90
16655;DHT22;8441;51.344;7.022;2022-09-25T13:59:20;16.80;99.90
16655;DHT22;8441;51.344;7.022;2022-09-25T14:02:25;17.00;99.90
16655;DHT22;8441;51.344;7.022;2022-09-25T14:04:49;17.10;99.90
16655;DHT22;8441;51.344;7.022;2022-09-25T14:07:20;17.20;99.90
16655;DHT22;8441;51.344;7.022;2022-09-25T14:09:51;17.10;99.90
16655;DHT22;8441;51.344;7.022;2022-09-25T14:12:37;17.00;99.90
16655;DHT22;8441;51.344;7.022;2022-09-25T14:15:22;16.90;99.90
16655;DHT22;8441;51.344;7.022;2022-09-25T14:17:51;16.90;99.90
16655;DHT22;8441;51.344;7.022;2022-09-25T14:20:31;16.70;99.90
16655;DHT22;8441;51.344;7.022;2022-09-25T14:23:02;16.70;99.90
16655;DHT22;8441;51.344;7.022;2022-09-25T14:25:32;16.40;99.90
16655;DHT22;8441;51.344;7.022;2022-09-25T14:28:03;16.20;99.90
16655;DHT22;8441;51.344;7.022;2022-09-25T14:30:48;16.00;99.90
16655;DHT22;8441;51.344;7.022;2022-09-25T14:33:49;16.00;99.90
16655;DHT22;8441;51.344;7.022;2022-09-25T14:36:24;16.00;99.90
16655;DHT22;8441;51.344;7.022;2022-09-25T14:39:12;15.80;99.90
16655;DHT22;8441;51.344;7.022;2022-09-25T14:41:54;15.70;99.90
16655;DHT22;8441;51.344;7.022;2022-09-25T14:44:51;15.50;99.90
16655;DHT22;8441;51.344;7.022;2022-09-25T14:47:27;15.50;99.90
16655;DHT22;8441;51.344;7.022;2022-09-25T14:49:57;15.50;99.90
16655;DHT22;8441;51.344;7.022;2022-09-25T14:52:28;15.60;99.90
16655;DHT22;8441;51.344;7.022;2022-09-25T14:54:57;15.70;99.90
16655;DHT22;8441;51.344;7.022;2022-09-25T14:57:28;15.70;99.90
16655;DHT22;8441;51.344;7.022;2022-09-25T15:00:01;15.80;99.90
16655;DHT22;8441;51.344;7.022;2022-09-25T15:02:32;15.90;99.90
16655;DHT22;8441;51.344;7.022;2022-09-25T15:05:27;16.00;99.90
16655;DHT22;8441;51.344;7.022;2022-09-25T15:07:56;16.00;99.90
16655;DHT22;8441;51.344;7.022;2022-09-25T15:10:28;16.10;99.90
16655;DHT22;8441;51.344;7.022;2022-09-25T15:13:05;16.10;99.90
16655;DHT22;8441;51.344;7.022;2022-09-25T15:15:36;16.20;99.90
16655;DHT22;8441;51.344;7.022;2022-09-25T15:18:07;16.00;99.90
16655;DHT22;8441;51.344;7.022;2022-09-25T15:20:34;16.00;99.90
16655;DHT22;8441;51.344;7.022;2022-09-25T15:23:05;16.00;99.90
16655;DHT22;8441;51.344;7.022;2022-09-25T15:25:36;16.00;99.90
16655;DHT22;8441;51.344;7.022;2022-09-25T15:28:04;15.90;99.90
16655;DHT22;8441;51.344;7.022;2022-09-25T15:30:35;15.80;99.90
16655;DHT22;8441;51.344;7.022;2022-09-25T15:33:04;15.80;99.90
16655;DHT22;8441;51.344;7.022;2022-09-25T15:35:31;15.70;99.90
16655;DHT22;8441;51.344;7.022;2022-09-25T15:38:03;15.60;99.90
16655;DHT22;8441;51.344;7.022;2022-09-25T15:40:34;15.30;99.90
16655;DHT22;8441;51.344;7.022;2022-09-25T15:43:01;15.20;99.90
16655;DHT22;8441;51.344;7.022;2022-09-25T15:45:53;15.10;99.90
16655;DHT22;8441;51.344;7.022;2022-09-25T15:48:25;14.80;99.90
16655;DHT22;8441;51.344;7.022;2022-09-25T15:50:55;14.70;99.90
16655;DHT22;8441;51.344;7.022;2022-09-25T15:53:26;14.50;99.90
16655;DHT22;8441;51.344;7.022;2022-09-25T15:56:03;14.40;99.90
16655;DHT22;8441;51.344;7.022;2022-09-25T15:58:41;14.30;99.90
16655;DHT22;8441;51.344;7.022;2022-09-25T16:01:12;14.20;99.90
16655;DHT22;8441;51.344;7.022;2022-09-25T16:03:58;14.20;99.90
16655;DHT22;8441;51.344;7.022;2022-09-25T16:06:44;14.10;99.90
16655;DHT22;8441;51.344;7.022;2022-09-25T16:09:27;14.00;99.90
16655;DHT22;8441;51.344;7.022;2022-09-25T16:12:21;13.90;99.90
16655;DHT22;8441;51.344;7.022;2022-09-25T16:14:53;13.80;99.90
16655;DHT22;8441;51.344;7.022;2022-09-25T16:17:30;13.70;99.90
16655;DHT22;8441;51.344;7.022;2022-09-25T16:20:06;13.70;99.90
16655;DHT22;8441;51.344;7.022;2022-09-25T16:22:39;13.60;99.90
16655;DHT22;8441;51.344;7.022;2022-09-25T16:25:15;13.60;99.90
16655;DHT22;8441;51.344;7.022;2022-09-25T16:27:44;13.50;99.90
16655;DHT22;8441;51.344;7.022;2022-09-25T16:30:17;13.50;99.90
16655;DHT22;8441;51.344;7.022;2022-09-25T16:32:48;13.50;99.90
16655;DHT22;8441;51.344;7.022;2022-09-25T16:35:21;13.40;99.90
16655;DHT22;8441;51.344;7.022;2022-09-25T16:37:51;13.30;99.90
16655;DHT22;8441;51.344;7.022;2022-09-25T16:40:29;13.20;99.90
16655;DHT22;8441;51.344;7.022;2022-09-25T16:42:59;13.20;99.90
16655;DHT22;8441;51.344;7.022;2022-09-25T16:45:28;13.20;99.90
16655;DHT22;8441;51.344;7.022;2022-09-25T16:48:01;13.20;99.90
16655;DHT22;8441;51.344;7.022;2022-09-25T16:50:48;13.20;99.90
16655;DHT22;8441;51.344;7.022;2022-09-25T16:53:16;13.20;99.90
16655;DHT22;8441;51.344;7.022;2022-09-25T16:55:45;13.20;99.90
16655;DHT22;8441;51.344;7.022;2022-09-25T16:58:18;13.10;99.90
16655;DHT22;8441;51.344;7.022;2022-09-25T17:00:45;13.20;99.90
16655;DHT22;8441;51.344;7.022;2022-09-25T17:03:14;13.20;99.90
16655;DHT22;8441;51.344;7.022;2022-09-25T17:05:41;13.20;99.90
16655;DHT22;8441;51.344;7.022;2022-09-25T17:08:14;13.20;99.90
16655;DHT22;8441;51.344;7.022;2022-09-25T17:10:43;13.10;99.90
16655;DHT22;8441;51.344;7.022;2022-09-25T17:13:13;13.10;99.90
16655;DHT22;8441;51.344;7.022;2022-09-25T17:15:41;12.90;99.90
16655;DHT22;8441;51.344;7.022;2022-09-25T17:18:15;12.90;99.90
16655;DHT22;8441;51.344;7.022;2022-09-25T17:20:43;12.90;99.90
16655;DHT22;8441;51.344;7.022;2022-09-25T17:23:11;12.90;99.90
16655;DHT22;8441;51.344;7.022;2022-09-25T17:25:42;12.80;99.90
16655;DHT22;8441;51.344;7.022;2022-09-25T17:28:10;12.80;99.90
16655;DHT22;8441;51.344;7.022;2022-09-25T17:30:38;12.60;99.90
16655;DHT22;8441;51.344;7.022;2022-09-25T17:33:12;12.70;99.90
16655;DHT22;8441;51.344;7.022;2022-09-25T17:35:45;12.60;99.90
16655;DHT22;8441;51.344;7.022;2022-09-25T17:38:13;12.60;99.90
16655;DHT22;8441;51.344;7.022;2022-09-25T17:40:42;12.50;99.90
16655;DHT22;8441;51.344;7.022;2022-09-25T17:43:11;12.50;99.90
16655;DHT22;8441;51.344;7.022;2022-09-25T17:45:42;12.40;99.90
16655;DHT22;8441;51.344;7.022;2022-09-25T17:48:10;12.40;99.90
16655;DHT22;8441;51.344;7.022;2022-09-25T17:50:38;12.30;99.90
16655;DHT22;8441;51.344;7.022;2022-09-25T17:53:14;12.20;99.90
16655;DHT22;8441;51.344;7.022;2022-09-25T17:55:42;12.10;99.90
16655;DHT22;8441;51.344;7.022;2022-09-25T17:58:09;12.10;99.90
16655;DHT22;8441;51.344;7.022;2022-09-25T18:00:36;12.10;99.90
16655;DHT22;8441;51.344;7.022;2022-09-25T18:03:04;12.00;99.90
16655;DHT22;8441;51.344;7.022;2022-09-25T18:05:31;12.10;99.90
16655;DHT22;8441;51.344;7.022;2022-09-25T18:07:58;12.10;99.90
16655;DHT22;8441;51.344;7.022;2022-09-25T18:10:27;12.00;99.90
16655;DHT22;8441;51.344;7.022;2022-09-25T18:12:54;11.90;99.90
16655;DHT22;8441;51.344;7.022;2022-09-25T18:15:21;11.80;99.90
16655;DHT22;8441;51.344;7.022;2022-09-25T18:17:48;11.70;99.90
16655;DHT22;8441;51.344;7.022;2022-09-25T18:20:16;11.60;99.90
16655;DHT22;8441;51.344;7.022;2022-09-25T18:23:01;11.50;99.90
16655;DHT22;8441;51.344;7.022;2022-09-25T18:25:30;11.50;99.90
16655;DHT22;8441;51.344;7.022;2022-09-25T18:27:57;11.40;99.90
16655;DHT22;8441;51.344;7.022;2022-09-25T18:30:24;11.30;99.90
16655;DHT22;8441;51.344;7.022;2022-09-25T18:32:51;11.20;99.90
16655;DHT22;8441;51.344;7.022;2022-09-25T18:35:19;11.10;99.90
16655;DHT22;8441;51.344;7.022;2022-09-25T18:37:47;10.90;99.90
16655;DHT22;8441;51.344;7.022;2022-09-25T18:40:16;10.80;99.90
16655;DHT22;8441;51.344;7.022;2022-09-25T18:42:45;10.80;99.90
16655;DHT22;8441;51.344;7.022;2022-09-25T18:45:13;10.70;99.90
16655;DHT22;8441;51.344;7.022;2022-09-25T18:47:41;10.60;99.90
16655;DHT22;8441;51.344;7.022;2022-09-25T18:50:08;10.50;99.90
16655;DHT22;8441;51.344;7.022;2022-09-25T18:52:36;10.50;99.90
16655;DHT22;8441;51.344;7.022;2022-09-25T18:55:04;10.40;99.90
16655;DHT22;8441;51.344;7.022;2022-09-25T18:57:31;10.40;99.90
16655;DHT22;8441;51.344;7.022;2022-09-25T19:00:00;10.20;99.90
16655;DHT22;8441;51.344;7.022;2022-09-25T19:02:29;10.20;99.90
16655;DHT22;8441;51.344;7.022;2022-09-25T19:04:57;10.10;99.90
16655;DHT22;8441;51.344;7.022;2022-09-25T19:07:26;10.10;99.90
16655;DHT22;8441;51.344;7.022;2022-09-25T19:09:54;10.10;99.90
16655;DHT22;8441;51.344;7.022;2022-09-25T19:12:23;10.10;99.90
16655;DHT22;8441;51.344;7.022;2022-09-25T19:14:50;10.10;99.90
16655;DHT22;8441;51.344;7.022;2022-09-25T19:17:19;10.00;99.90
16655;DHT22;8441;51.344;7.022;2022-09-25T19:19:46;9.90;99.90
16655;DHT22;8441;51.344;7.022;2022-09-25T19:22:15;9.90;99.90
16655;DHT22;8441;51.344;7.022;2022-09-25T19:24:43;9.80;99.90
16655;DHT22;8441;51.344;7.022;2022-09-25T19:27:11;9.80;99.90
16655;DHT22;8441;51.344;7.022;2022-09-25T19:29:39;9.80;99.90
16655;DHT22;8441;51.344;7.022;2022-09-25T19:32:08;9.70;99.90
16655;DHT22;8441;51.344;7.022;2022-09-25T19:34:37;9.60;99.90
16655;DHT22;8441;51.344;7.022;2022-09-25T19:37:05;9.60;99.90
16655;DHT22;8441;51.344;7.022;2022-09-25T19:39:32;9.50;99.90
16655;DHT22;8441;51.344;7.022;2022-09-25T19:42:20;9.50;99.90
16655;DHT22;8441;51.344;7.022;2022-09-25T19:44:48;9.50;99.90
16655;DHT22;8441;51.344;7.022;2022-09-25T19:47:15;9.50;99.90
16655;DHT22;8441;51.344;7.022;2022-09-25T19:49:44;9.50;99.90
16655;DHT22;8441;51.344;7.022;2022-09-25T19:52:11;9.50;99.90
16655;DHT22;8441;51.344;7.022;2022-09-25T19:54:38;9.60;99.90
16655;DHT22;8441;51.344;7.022;2022-09-25T19:57:05;9.50;99.90
16655;DHT22;8441;51.344;7.022;2022-09-25T19:59:34;9.50;99.90
16655;DHT22;8441;51.344;7.022;2022-09-25T20:02:01;9.40;99.90
16655;DHT22;8441;51.344;7.022;2022-09-25T20:04:28;9.40;99.90
16655;DHT22;8441;51.344;7.022;2022-09-25T20:06:57;9.40;99.90
16655;DHT22;8441;51.344;7.022;2022-09-25T20:09:24;9.40;99.90
16655;DHT22;8441;51.344;7.022;2022-09-25T20:11:52;9.30;99.90
16655;DHT22;8441;51.344;7.022;2022-09-25T20:14:19;9.20;99.90
16655;DHT22;8441;51.344;7.022;2022-09-25T20:16:51;9.20;99.90
16655;DHT22;8441;51.344;7.022;2022-09-25T20:19:19;9.20;99.90
16655;DHT22;8441;51.344;7.022;2022-09-25T20:21:47;9.20;99.90
16655;DHT22;8441;51.344;7.022;2022-09-25T20:24:15;9.20;99.90
16655;DHT22;8441;51.344;7.022;2022-09-25T20:26:45;9.20;99.90
16655;DHT22;8441;51.344;7.022;2022-09-25T20:29:14;9.10;99.90
16655;DHT22;8441;51.344;7.022;2022-09-25T20:31:45;9.10;99.90
16655;DHT22;8441;51.344;7.022;2022-09-25T20:34:14;9.00;99.90
16655;DHT22;8441;51.344;7.022;2022-09-25T20:36:42;9.00;99.90
16655;DHT22;8441;51.344;7.022;2022-09-25T20:39:09;9.00;99.90
16655;DHT22;8441;51.344;7.022;2022-09-25T20:41:38;9.00;99.90
16655;DHT22;8441;51.344;7.022;2022-09-25T20:44:06;9.00;99.90
16655;DHT22;8441;51.344;7.022;2022-09-25T20:46:33;9.00;99.90
16655;DHT22;8441;51.344;7.022;2022-09-25T20:49:00;9.00;99.90
16655;DHT22;8441;51.344;7.022;2022-09-25T20:51:30;8.90;99.90
16655;DHT22;8441;51.344;7.022;2022-09-25T20:54:00;8.90;99.90
16655;DHT22;8441;51.344;7.022;2022-09-25T20:56:29;8.90;99.90
16655;DHT22;8441;51.344;7.022;2022-09-25T20:58:58;8.90;99.90
16655;DHT22;8441;51.344;7.022;2022-09-25T21:01:28;8.80;99.90
16655;DHT22;8441;51.344;7.022;2022-09-25T21:03:58;8.80;99.90
16655;DHT22;8441;51.344;7.022;2022-09-25T21:06:28;8.80;99.90
16655;DHT22;8441;51.344;7.022;2022-09-25T21:08:58;8.80;99.90
16655;DHT22;8441;51.344;7.022;2022-09-25T21:11:27;8.80;99.90
16655;DHT22;8441;51.344;7.022;2022-09-25T21:13:58;8.70;99.90
16655;DHT22;8441;51.344;7.022;2022-09-25T21:16:28;8.80;99.90
16655;DHT22;8441;51.344;7.022;2022-09-25T21:18:57;8.80;99.90
16655;DHT22;8441;51.344;7.022;2022-09-25T21:21:26;8.70;99.90
16655;DHT22;8441;51.344;7.022;2022-09-25T21:23:55;8.70;99.90
16655;DHT22;8441;51.344;7.022;2022-09-25T21:26:24;8.70;99.90
16655;DHT22;8441;51.344;7.022;2022-09-25T21:28:52;8.80;99.90
16655;DHT22;8441;51.344;7.022;2022-09-25T21:31:23;8.80;99.90
16655;DHT22;8441;51.344;7.022;2022-09-25T21:33:51;8.80;99.90
16655;DHT22;8441;51.344;7.022;2022-09-25T21:36:19;8.80;99.90
16655;DHT22;8441;51.344;7.022;2022-09-25T21:38:47;8.80;99.90
16655;DHT22;8441;51.344;7.022;2022-09-25T21:41:20;8.90;99.90
16655;DHT22;8441;51.344;7.022;2022-09-25T21:43:51;8.90;99.90
16655;DHT22;8441;51.344;7.022;2022-09-25T21:46:18;8.90;99.90
16655;DHT22;8441;51.344;7.022;2022-09-25T21:48:49;8.90;99.90
16655;DHT22;8441;51.344;7.022;2022-09-25T21:51:17;8.90;99.90
16655;DHT22;8441;51.344;7.022;2022-09-25T21:53:45;8.90;99.90
16655;DHT22;8441;51.344;7.022;2022-09-25T21:56:14;8.90;99.90
16655;DHT22;8441;51.344;7.022;2022-09-25T21:58:41;9.00;99.90
16655;DHT22;8441;51.344;7.022;2022-09-25T22:01:11;9.10;99.90
16655;DHT22;8441;51.344;7.022;2022-09-25T22:03:40;9.20;99.90
16655;DHT22;8441;51.344;7.022;2022-09-25T22:06:10;9.30;99.90
16655;DHT22;8441;51.344;7.022;2022-09-25T22:08:40;9.40;99.90
16655;DHT22;8441;51.344;7.022;2022-09-25T22:11:08;9.50;99.90
16655;DHT22;8441;51.344;7.022;2022-09-25T22:13:43;9.50;99.90
16655;DHT22;8441;51.344;7.022;2022-09-25T22:16:12;9.60;99.90
16655;DHT22;8441;51.344;7.022;2022-09-25T22:18:41;9.70;99.90
16655;DHT22;8441;51.344;7.022;2022-09-25T22:21:11;9.70;99.90
16655;DHT22;8441;51.344;7.022;2022-09-25T22:23:39;9.70;99.90
16655;DHT22;8441;51.344;7.022;2022-09-25T22:26:07;9.80;99.90
16655;DHT22;8441;51.344;7.022;2022-09-25T22:28:35;9.70;99.90
16655;DHT22;8441;51.344;7.022;2022-09-25T22:31:04;9.70;99.90
16655;DHT22;8441;51.344;7.022;2022-09-25T22:33:31;9.70;99.90
16655;DHT22;8441;51.344;7.022;2022-09-25T22:35:59;9.80;99.90
16655;DHT22;8441;51.344;7.022;2022-09-25T22:38:28;9.80;99.90
16655;DHT22;8441;51.344;7.022;2022-09-25T22:41:00;9.80;99.90
16655;DHT22;8441;51.344;7.022;2022-09-25T22:43:28;9.70;99.90
16655;DHT22;8441;51.344;7.022;2022-09-25T22:45:55;9.70;99.90
16655;DHT22;8441;51.344;7.022;2022-09-25T22:48:22;9.70;99.90
16655;DHT22;8441;51.344;7.022;2022-09-25T22:50:54;9.60;99.90
16655;DHT22;8441;51.344;7.022;2022-09-25T22:53:22;9.50;99.90
16655;DHT22;8441;51.344;7.022;2022-09-25T22:55:51;9.40;99.90
16655;DHT22;8441;51.344;7.022;2022-09-25T22:58:19;9.40;99.90
16655;DHT22;8441;51.344;7.022;2022-09-25T23:00:49;9.30;99.90